Terminal Aerodrome Forecast
Issued by NWS

Home | Current Version | Previous Version | Text Only | Print | Product List | Glossary On
Versions: 1 2 3 4 5 6 7 8 9 10 11 12 13 14 15
000
FTUS44 KLUB 181100
TAFCDS
TAF
KCDS 181124Z 1812/1912 16007KT P6SM SCT080 OVC120 PROB30 1821/1903
      6SM TSRA BKN070CB
     FM190900 16008KT 3SM BR BKN300=

USA.gov is the U.S. government's official web portal to all federal, state and local government web resources and services.